sensor_id;sensor_type;location;lat;lon;timestamp;P1;durP1;ratioP1;P2;durP2;ratioP2
30020;SDS011;16861;52.294;7.760;2023-05-10T00:00:17;4.13;;;0.60;;
30020;SDS011;16861;52.294;7.760;2023-05-10T00:02:44;0.43;;;0.43;;
30020;SDS011;16861;52.294;7.760;2023-05-10T00:05:11;0.50;;;0.50;;
30020;SDS011;16861;52.294;7.760;2023-05-10T00:07:37;0.40;;;0.40;;
30020;SDS011;16861;52.294;7.760;2023-05-10T00:10:04;1.13;;;0.70;;
30020;SDS011;16861;52.294;7.760;2023-05-10T00:12:30;0.45;;;0.45;;
30020;SDS011;16861;52.294;7.760;2023-05-10T00:14:57;0.30;;;0.30;;
30020;SDS011;16861;52.294;7.760;2023-05-10T00:17:24;0.73;;;0.40;;
30020;SDS011;16861;52.294;7.760;2023-05-10T00:19:50;0.73;;;0.63;;
30020;SDS011;16861;52.294;7.760;2023-05-10T00:22:17;1.70;;;0.80;;
30020;SDS011;16861;52.294;7.760;2023-05-10T00:24:43;0.80;;;0.80;;
30020;SDS011;16861;52.294;7.760;2023-05-10T00:27:10;0.95;;;0.95;;
30020;SDS011;16861;52.294;7.760;2023-05-10T00:29:36;1.10;;;1.00;;
30020;SDS011;16861;52.294;7.760;2023-05-10T00:32:03;2.00;;;1.23;;
30020;SDS011;16861;52.294;7.760;2023-05-10T00:34:29;1.20;;;1.10;;
30020;SDS011;16861;52.294;7.760;2023-05-10T00:36:56;1.10;;;0.98;;
30020;SDS011;16861;52.294;7.760;2023-05-10T00:39:23;1.05;;;0.77;;
30020;SDS011;16861;52.294;7.760;2023-05-10T00:41:49;0.77;;;0.77;;
30020;SDS011;16861;52.294;7.760;2023-05-10T00:44:16;0.80;;;0.80;;
30020;SDS011;16861;52.294;7.760;2023-05-10T00:46:42;0.88;;;0.80;;
30020;SDS011;16861;52.294;7.760;2023-05-10T00:49:09;1.95;;;0.80;;
30020;SDS011;16861;52.294;7.760;2023-05-10T00:51:36;1.35;;;0.90;;
30020;SDS011;16861;52.294;7.760;2023-05-10T00:54:03;1.35;;;0.98;;
30020;SDS011;16861;52.294;7.760;2023-05-10T00:56:31;0.90;;;0.88;;
30020;SDS011;16861;52.294;7.760;2023-05-10T00:58:57;0.80;;;0.80;;
30020;SDS011;16861;52.294;7.760;2023-05-10T01:01:24;2.05;;;0.70;;
30020;SDS011;16861;52.294;7.760;2023-05-10T01:03:51;0.55;;;0.50;;
30020;SDS011;16861;52.294;7.760;2023-05-10T01:06:18;0.80;;;0.80;;
30020;SDS011;16861;52.294;7.760;2023-05-10T01:08:45;0.68;;;0.68;;
30020;SDS011;16861;52.294;7.760;2023-05-10T01:11:11;0.80;;;0.80;;
30020;SDS011;16861;52.294;7.760;2023-05-10T01:13:38;1.42;;;1.02;;
30020;SDS011;16861;52.294;7.760;2023-05-10T01:16:08;1.30;;;1.20;;
30020;SDS011;16861;52.294;7.760;2023-05-10T01:18:36;1.00;;;1.00;;
30020;SDS011;16861;52.294;7.760;2023-05-10T01:32:28;4.45;;;4.05;;
30020;SDS011;16861;52.294;7.760;2023-05-10T01:35:00;5.18;;;4.68;;
30020;SDS011;16861;52.294;7.760;2023-05-10T01:40:47;6.32;;;5.75;;
30020;SDS011;16861;52.294;7.760;2023-05-10T01:43:28;5.43;;;4.93;;
30020;SDS011;16861;52.294;7.760;2023-05-10T01:46:07;4.47;;;4.07;;
30020;SDS011;16861;52.294;7.760;2023-05-10T01:48:41;4.45;;;4.05;;
30020;SDS011;16861;52.294;7.760;2023-05-10T01:51:19;4.32;;;3.97;;
30020;SDS011;16861;52.294;7.760;2023-05-10T01:53:49;4.13;;;3.80;;
30020;SDS011;16861;52.294;7.760;2023-05-10T01:56:20;4.00;;;3.65;;
30020;SDS011;16861;52.294;7.760;2023-05-10T01:58:50;3.70;;;3.40;;
30020;SDS011;16861;52.294;7.760;2023-05-10T02:01:19;3.80;;;3.50;;
30020;SDS011;16861;52.294;7.760;2023-05-10T02:03:48;4.05;;;3.75;;
30020;SDS011;16861;52.294;7.760;2023-05-10T02:06:18;3.40;;;3.10;;
30020;SDS011;16861;52.294;7.760;2023-05-10T02:08:47;2.95;;;2.75;;
30020;SDS011;16861;52.294;7.760;2023-05-10T02:11:15;2.95;;;2.75;;
30020;SDS011;16861;52.294;7.760;2023-05-10T02:13:44;2.85;;;2.58;;
30020;SDS011;16861;52.294;7.760;2023-05-10T02:16:13;2.20;;;2.00;;
30020;SDS011;16861;52.294;7.760;2023-05-10T02:18:42;2.92;;;2.13;;
30020;SDS011;16861;52.294;7.760;2023-05-10T02:21:09;2.38;;;2.17;;
30020;SDS011;16861;52.294;7.760;2023-05-10T02:23:37;1.98;;;1.88;;
30020;SDS011;16861;52.294;7.760;2023-05-10T02:26:04;1.92;;;1.77;;
30020;SDS011;16861;52.294;7.760;2023-05-10T02:28:32;1.67;;;1.58;;
30020;SDS011;16861;52.294;7.760;2023-05-10T02:31:01;1.63;;;1.52;;
30020;SDS011;16861;52.294;7.760;2023-05-10T02:33:28;1.55;;;1.45;;
30020;SDS011;16861;52.294;7.760;2023-05-10T02:35:57;1.63;;;1.52;;
30020;SDS011;16861;52.294;7.760;2023-05-10T02:38:25;2.78;;;1.80;;
30020;SDS011;16861;52.294;7.760;2023-05-10T02:40:52;2.20;;;2.00;;
30020;SDS011;16861;52.294;7.760;2023-05-10T02:43:20;4.55;;;1.83;;
30020;SDS011;16861;52.294;7.760;2023-05-10T02:45:49;2.25;;;2.00;;
30020;SDS011;16861;52.294;7.760;2023-05-10T02:48:18;2.40;;;2.20;;
30020;SDS011;16861;52.294;7.760;2023-05-10T02:50:44;3.08;;;2.55;;
30020;SDS011;16861;52.294;7.760;2023-05-10T02:53:22;2.72;;;2.53;;
30020;SDS011;16861;52.294;7.760;2023-05-10T02:55:53;2.38;;;2.17;;
30020;SDS011;16861;52.294;7.760;2023-05-10T02:58:24;2.97;;;2.67;;
30020;SDS011;16861;52.294;7.760;2023-05-10T03:00:51;2.85;;;2.65;;
30020;SDS011;16861;52.294;7.760;2023-05-10T03:03:18;2.70;;;2.50;;
30020;SDS011;16861;52.294;7.760;2023-05-10T03:05:46;3.00;;;2.80;;
30020;SDS011;16861;52.294;7.760;2023-05-10T03:08:12;4.15;;;3.20;;
30020;SDS011;16861;52.294;7.760;2023-05-10T03:10:47;3.20;;;2.90;;
30020;SDS011;16861;52.294;7.760;2023-05-10T03:13:27;3.35;;;3.05;;
30020;SDS011;16861;52.294;7.760;2023-05-10T03:16:11;4.15;;;2.95;;
30020;SDS011;16861;52.294;7.760;2023-05-10T03:18:44;3.30;;;3.00;;
30020;SDS011;16861;52.294;7.760;2023-05-10T03:21:14;3.40;;;2.90;;
30020;SDS011;16861;52.294;7.760;2023-05-10T03:23:46;3.58;;;3.28;;
30020;SDS011;16861;52.294;7.760;2023-05-10T03:26:18;3.88;;;3.58;;
30020;SDS011;16861;52.294;7.760;2023-05-10T03:28:48;3.80;;;3.40;;
30020;SDS011;16861;52.294;7.760;2023-05-10T03:31:16;3.78;;;3.47;;
30020;SDS011;16861;52.294;7.760;2023-05-10T03:33:47;3.72;;;3.42;;
30020;SDS011;16861;52.294;7.760;2023-05-10T03:36:15;3.70;;;3.40;;
30020;SDS011;16861;52.294;7.760;2023-05-10T03:38:42;5.15;;;3.70;;
30020;SDS011;16861;52.294;7.760;2023-05-10T03:41:08;4.22;;;3.83;;
30020;SDS011;16861;52.294;7.760;2023-05-10T03:43:35;4.55;;;3.30;;
30020;SDS011;16861;52.294;7.760;2023-05-10T03:46:04;4.05;;;3.63;;
30020;SDS011;16861;52.294;7.760;2023-05-10T03:48:32;4.40;;;3.90;;
30020;SDS011;16861;52.294;7.760;2023-05-10T03:50:59;4.05;;;3.65;;
30020;SDS011;16861;52.294;7.760;2023-05-10T03:53:25;4.60;;;3.63;;
30020;SDS011;16861;52.294;7.760;2023-05-10T03:55:52;6.35;;;4.03;;
30020;SDS011;16861;52.294;7.760;2023-05-10T03:58:19;4.75;;;4.32;;
30020;SDS011;16861;52.294;7.760;2023-05-10T04:00:45;4.60;;;4.20;;
30020;SDS011;16861;52.294;7.760;2023-05-10T04:03:12;5.15;;;4.50;;
30020;SDS011;16861;52.294;7.760;2023-05-10T04:05:39;5.30;;;4.80;;
30020;SDS011;16861;52.294;7.760;2023-05-10T04:08:06;5.22;;;4.72;;
30020;SDS011;16861;52.294;7.760;2023-05-10T04:10:32;7.68;;;5.43;;
30020;SDS011;16861;52.294;7.760;2023-05-10T04:12:59;5.43;;;4.90;;
30020;SDS011;16861;52.294;7.760;2023-05-10T04:15:25;5.20;;;4.70;;
30020;SDS011;16861;52.294;7.760;2023-05-10T04:17:52;5.93;;;5.25;;
30020;SDS011;16861;52.294;7.760;2023-05-10T04:20:19;6.15;;;5.55;;
30020;SDS011;16861;52.294;7.760;2023-05-10T04:22:46;5.90;;;5.30;;
30020;SDS011;16861;52.294;7.760;2023-05-10T04:25:12;6.25;;;5.35;;
30020;SDS011;16861;52.294;7.760;2023-05-10T04:27:39;5.57;;;5.07;;
30020;SDS011;16861;52.294;7.760;2023-05-10T04:30:06;5.75;;;4.50;;
30020;SDS011;16861;52.294;7.760;2023-05-10T04:32:33;6.20;;;5.60;;
30020;SDS011;16861;52.294;7.760;2023-05-10T04:34:59;6.15;;;5.55;;
30020;SDS011;16861;52.294;7.760;2023-05-10T04:37:26;6.75;;;6.05;;
30020;SDS011;16861;52.294;7.760;2023-05-10T04:39:52;7.95;;;6.63;;
30020;SDS011;16861;52.294;7.760;2023-05-10T04:42:19;6.85;;;6.03;;
30020;SDS011;16861;52.294;7.760;2023-05-10T04:44:45;7.32;;;5.97;;
30020;SDS011;16861;52.294;7.760;2023-05-10T04:47:12;7.30;;;6.25;;
30020;SDS011;16861;52.294;7.760;2023-05-10T04:49:39;8.23;;;6.20;;
30020;SDS011;16861;52.294;7.760;2023-05-10T04:52:05;6.63;;;5.93;;
30020;SDS011;16861;52.294;7.760;2023-05-10T04:54:32;6.70;;;5.95;;
30020;SDS011;16861;52.294;7.760;2023-05-10T04:56:58;8.20;;;6.60;;
30020;SDS011;16861;52.294;7.760;2023-05-10T04:59:25;6.50;;;5.55;;
30020;SDS011;16861;52.294;7.760;2023-05-10T05:01:51;6.97;;;5.78;;
30020;SDS011;16861;52.294;7.760;2023-05-10T05:04:18;7.13;;;5.80;;
30020;SDS011;16861;52.294;7.760;2023-05-10T05:06:44;5.75;;;5.25;;
30020;SDS011;16861;52.294;7.760;2023-05-10T05:09:11;5.65;;;5.13;;
30020;SDS011;16861;52.294;7.760;2023-05-10T05:11:37;7.85;;;4.90;;
30020;SDS011;16861;52.294;7.760;2023-05-10T05:14:04;5.25;;;4.75;;
30020;SDS011;16861;52.294;7.760;2023-05-10T05:16:30;5.13;;;4.63;;
30020;SDS011;16861;52.294;7.760;2023-05-10T05:18:58;6.30;;;5.43;;
30020;SDS011;16861;52.294;7.760;2023-05-10T05:21:26;7.40;;;5.60;;
30020;SDS011;16861;52.294;7.760;2023-05-10T05:23:53;6.20;;;5.40;;
30020;SDS011;16861;52.294;7.760;2023-05-10T05:26:19;6.85;;;5.80;;
30020;SDS011;16861;52.294;7.760;2023-05-10T05:28:46;6.32;;;5.70;;
30020;SDS011;16861;52.294;7.760;2023-05-10T05:31:14;6.35;;;5.65;;
30020;SDS011;16861;52.294;7.760;2023-05-10T05:33:41;5.93;;;5.28;;
30020;SDS011;16861;52.294;7.760;2023-05-10T05:36:07;7.07;;;5.63;;
30020;SDS011;16861;52.294;7.760;2023-05-10T05:38:34;6.50;;;5.90;;
30020;SDS011;16861;52.294;7.760;2023-05-10T05:41:00;6.55;;;5.90;;
30020;SDS011;16861;52.294;7.760;2023-05-10T05:43:26;6.95;;;6.07;;
30020;SDS011;16861;52.294;7.760;2023-05-10T05:45:53;8.52;;;7.03;;
30020;SDS011;16861;52.294;7.760;2023-05-10T05:48:20;7.55;;;6.20;;
30020;SDS011;16861;52.294;7.760;2023-05-10T05:50:50;8.95;;;6.10;;
30020;SDS011;16861;52.294;7.760;2023-05-10T05:53:20;9.10;;;7.28;;
30020;SDS011;16861;52.294;7.760;2023-05-10T05:55:54;9.93;;;7.60;;
30020;SDS011;16861;52.294;7.760;2023-05-10T05:58:21;9.05;;;7.40;;
30020;SDS011;16861;52.294;7.760;2023-05-10T06:00:48;8.70;;;7.15;;
30020;SDS011;16861;52.294;7.760;2023-05-10T06:03:15;9.77;;;8.00;;
30020;SDS011;16861;52.294;7.760;2023-05-10T06:05:42;10.35;;;8.32;;
30020;SDS011;16861;52.294;7.760;2023-05-10T06:08:09;14.45;;;10.10;;
30020;SDS011;16861;52.294;7.760;2023-05-10T06:10:36;12.45;;;9.90;;
30020;SDS011;16861;52.294;7.760;2023-05-10T06:13:02;13.70;;;10.40;;
30020;SDS011;16861;52.294;7.760;2023-05-10T06:18:19;13.40;;;10.00;;
30020;SDS011;16861;52.294;7.760;2023-05-10T06:20:46;14.13;;;10.57;;
30020;SDS011;16861;52.294;7.760;2023-05-10T06:23:12;12.20;;;10.10;;
30020;SDS011;16861;52.294;7.760;2023-05-10T06:25:39;19.15;;;11.45;;
30020;SDS011;16861;52.294;7.760;2023-05-10T06:28:06;18.40;;;11.70;;
30020;SDS011;16861;52.294;7.760;2023-05-10T06:30:32;18.17;;;11.35;;
30020;SDS011;16861;52.294;7.760;2023-05-10T06:32:59;16.45;;;12.02;;
30020;SDS011;16861;52.294;7.760;2023-05-10T06:35:26;15.98;;;12.52;;
30020;SDS011;16861;52.294;7.760;2023-05-10T06:37:53;20.58;;;13.40;;
30020;SDS011;16861;52.294;7.760;2023-05-10T06:40:19;18.73;;;13.00;;
30020;SDS011;16861;52.294;7.760;2023-05-10T06:42:46;19.45;;;13.50;;
30020;SDS011;16861;52.294;7.760;2023-05-10T06:45:14;22.45;;;13.27;;
30020;SDS011;16861;52.294;7.760;2023-05-10T06:47:41;18.48;;;12.73;;
30020;SDS011;16861;52.294;7.760;2023-05-10T06:50:08;22.58;;;14.30;;
30020;SDS011;16861;52.294;7.760;2023-05-10T06:52:35;20.80;;;15.25;;
30020;SDS011;16861;52.294;7.760;2023-05-10T06:55:02;21.73;;;14.80;;
30020;SDS011;16861;52.294;7.760;2023-05-10T06:57:30;19.80;;;14.57;;
30020;SDS011;16861;52.294;7.760;2023-05-10T06:59:58;19.25;;;14.40;;
30020;SDS011;16861;52.294;7.760;2023-05-10T07:02:25;21.73;;;15.43;;
30020;SDS011;16861;52.294;7.760;2023-05-10T07:04:53;22.52;;;14.43;;
30020;SDS011;16861;52.294;7.760;2023-05-10T07:07:20;22.42;;;14.30;;
30020;SDS011;16861;52.294;7.760;2023-05-10T07:09:47;22.27;;;14.00;;
30020;SDS011;16861;52.294;7.760;2023-05-10T07:12:13;21.40;;;13.80;;
30020;SDS011;16861;52.294;7.760;2023-05-10T07:14:41;20.40;;;14.50;;
30020;SDS011;16861;52.294;7.760;2023-05-10T07:17:08;21.52;;;14.93;;
30020;SDS011;16861;52.294;7.760;2023-05-10T07:19:35;20.20;;;13.50;;
30020;SDS011;16861;52.294;7.760;2023-05-10T07:22:02;22.90;;;14.73;;
30020;SDS011;16861;52.294;7.760;2023-05-10T07:24:29;24.42;;;14.95;;
30020;SDS011;16861;52.294;7.760;2023-05-10T07:26:56;27.02;;;17.90;;
30020;SDS011;16861;52.294;7.760;2023-05-10T07:29:22;29.95;;;17.60;;
30020;SDS011;16861;52.294;7.760;2023-05-10T07:31:49;28.38;;;17.85;;
30020;SDS011;16861;52.294;7.760;2023-05-10T07:34:15;29.58;;;19.77;;
30020;SDS011;16861;52.294;7.760;2023-05-10T07:36:42;31.35;;;17.70;;
30020;SDS011;16861;52.294;7.760;2023-05-10T07:39:08;33.50;;;21.33;;
30020;SDS011;16861;52.294;7.760;2023-05-10T07:41:37;34.17;;;21.80;;
30020;SDS011;16861;52.294;7.760;2023-05-10T07:44:05;37.92;;;21.08;;
30020;SDS011;16861;52.294;7.760;2023-05-10T07:46:35;29.80;;;18.73;;
30020;SDS011;16861;52.294;7.760;2023-05-10T07:49:01;29.50;;;20.70;;
30020;SDS011;16861;52.294;7.760;2023-05-10T07:51:28;33.33;;;21.35;;
30020;SDS011;16861;52.294;7.760;2023-05-10T07:53:54;32.22;;;21.10;;
30020;SDS011;16861;52.294;7.760;2023-05-10T07:56:28;40.38;;;23.02;;
30020;SDS011;16861;52.294;7.760;2023-05-10T07:59:01;37.20;;;22.88;;
30020;SDS011;16861;52.294;7.760;2023-05-10T08:01:34;34.15;;;22.48;;
30020;SDS011;16861;52.294;7.760;2023-05-10T08:04:01;34.80;;;22.33;;
30020;SDS011;16861;52.294;7.760;2023-05-10T08:06:28;31.75;;;21.67;;
30020;SDS011;16861;52.294;7.760;2023-05-10T08:08:56;34.75;;;20.88;;
30020;SDS011;16861;52.294;7.760;2023-05-10T08:11:22;35.65;;;22.67;;
30020;SDS011;16861;52.294;7.760;2023-05-10T08:13:49;35.10;;;21.00;;
30020;SDS011;16861;52.294;7.760;2023-05-10T08:16:17;31.40;;;20.58;;
30020;SDS011;16861;52.294;7.760;2023-05-10T08:18:44;32.67;;;21.00;;
30020;SDS011;16861;52.294;7.760;2023-05-10T08:21:12;35.63;;;22.40;;
30020;SDS011;16861;52.294;7.760;2023-05-10T08:23:39;30.95;;;21.33;;
30020;SDS011;16861;52.294;7.760;2023-05-10T08:26:06;38.08;;;22.00;;
30020;SDS011;16861;52.294;7.760;2023-05-10T08:28:33;34.63;;;21.60;;
30020;SDS011;16861;52.294;7.760;2023-05-10T08:30:59;34.08;;;21.77;;
30020;SDS011;16861;52.294;7.760;2023-05-10T08:33:26;36.15;;;22.15;;
30020;SDS011;16861;52.294;7.760;2023-05-10T08:35:52;31.58;;;20.73;;
30020;SDS011;16861;52.294;7.760;2023-05-10T08:38:19;34.22;;;20.85;;
30020;SDS011;16861;52.294;7.760;2023-05-10T08:40:46;31.35;;;20.67;;
30020;SDS011;16861;52.294;7.760;2023-05-10T08:43:16;33.20;;;21.20;;
30020;SDS011;16861;52.294;7.760;2023-05-10T08:45:44;30.00;;;20.40;;
30020;SDS011;16861;52.294;7.760;2023-05-10T08:48:13;30.35;;;20.85;;
30020;SDS011;16861;52.294;7.760;2023-05-10T08:50:41;31.15;;;20.80;;
30020;SDS011;16861;52.294;7.760;2023-05-10T08:53:09;27.90;;;19.40;;
30020;SDS011;16861;52.294;7.760;2023-05-10T08:55:37;34.20;;;18.98;;
30020;SDS011;16861;52.294;7.760;2023-05-10T08:58:06;30.13;;;20.27;;
30020;SDS011;16861;52.294;7.760;2023-05-10T09:00:33;31.70;;;20.58;;
30020;SDS011;16861;52.294;7.760;2023-05-10T09:03:00;29.88;;;18.92;;
30020;SDS011;16861;52.294;7.760;2023-05-10T09:05:27;26.27;;;17.83;;
30020;SDS011;16861;52.294;7.760;2023-05-10T09:07:54;24.35;;;17.42;;
30020;SDS011;16861;52.294;7.760;2023-05-10T09:10:21;23.85;;;17.23;;
30020;SDS011;16861;52.294;7.760;2023-05-10T09:12:48;31.15;;;18.77;;
30020;SDS011;16861;52.294;7.760;2023-05-10T09:15:15;25.63;;;17.98;;
30020;SDS011;16861;52.294;7.760;2023-05-10T09:17:45;26.73;;;17.63;;
30020;SDS011;16861;52.294;7.760;2023-05-10T09:20:13;25.38;;;17.42;;
30020;SDS011;16861;52.294;7.760;2023-05-10T09:22:39;25.00;;;17.13;;
30020;SDS011;16861;52.294;7.760;2023-05-10T09:27:34;28.20;;;19.50;;
30020;SDS011;16861;52.294;7.760;2023-05-10T09:30:05;25.25;;;17.50;;
30020;SDS011;16861;52.294;7.760;2023-05-10T09:32:39;25.63;;;17.98;;
30020;SDS011;16861;52.294;7.760;2023-05-10T09:35:08;26.42;;;17.70;;
30020;SDS011;16861;52.294;7.760;2023-05-10T09:37:35;26.08;;;18.55;;
30020;SDS011;16861;52.294;7.760;2023-05-10T09:40:04;26.65;;;18.08;;
30020;SDS011;16861;52.294;7.760;2023-05-10T09:42:32;28.77;;;19.40;;
30020;SDS011;16861;52.294;7.760;2023-05-10T09:45:04;28.52;;;19.27;;
30020;SDS011;16861;52.294;7.760;2023-05-10T09:50:00;31.20;;;17.38;;
30020;SDS011;16861;52.294;7.760;2023-05-10T09:52:31;27.70;;;18.98;;
30020;SDS011;16861;52.294;7.760;2023-05-10T09:55:13;31.17;;;19.10;;
30020;SDS011;16861;52.294;7.760;2023-05-10T09:57:40;26.05;;;17.45;;
30020;SDS011;16861;52.294;7.760;2023-05-10T10:00:07;25.13;;;17.92;;
30020;SDS011;16861;52.294;7.760;2023-05-10T10:02:36;24.13;;;17.13;;
30020;SDS011;16861;52.294;7.760;2023-05-10T10:05:03;23.48;;;17.20;;
30020;SDS011;16861;52.294;7.760;2023-05-10T10:07:32;24.67;;;15.82;;
30020;SDS011;16861;52.294;7.760;2023-05-10T10:10:01;24.73;;;15.90;;
30020;SDS011;16861;52.294;7.760;2023-05-10T10:12:28;22.05;;;15.07;;
30020;SDS011;16861;52.294;7.760;2023-05-10T10:14:55;23.73;;;14.00;;
30020;SDS011;16861;52.294;7.760;2023-05-10T10:17:23;23.05;;;15.18;;
30020;SDS011;16861;52.294;7.760;2023-05-10T10:19:53;18.88;;;13.50;;
30020;SDS011;16861;52.294;7.760;2023-05-10T10:22:21;19.55;;;13.10;;
30020;SDS011;16861;52.294;7.760;2023-05-10T10:24:48;19.45;;;13.65;;
30020;SDS011;16861;52.294;7.760;2023-05-10T10:27:21;17.83;;;12.68;;
30020;SDS011;16861;52.294;7.760;2023-05-10T10:35:54;20.08;;;11.82;;
30020;SDS011;16861;52.294;7.760;2023-05-10T10:38:24;16.95;;;12.57;;
30020;SDS011;16861;52.294;7.760;2023-05-10T10:41:06;23.05;;;14.13;;
30020;SDS011;16861;52.294;7.760;2023-05-10T10:43:35;21.80;;;13.85;;
30020;SDS011;16861;52.294;7.760;2023-05-10T10:46:14;21.15;;;14.48;;
30020;SDS011;16861;52.294;7.760;2023-05-10T10:48:47;20.83;;;14.45;;
30020;SDS011;16861;52.294;7.760;2023-05-10T10:51:15;23.05;;;15.07;;
30020;SDS011;16861;52.294;7.760;2023-05-10T10:53:42;22.55;;;15.25;;
30020;SDS011;16861;52.294;7.760;2023-05-10T10:56:10;20.45;;;14.48;;
30020;SDS011;16861;52.294;7.760;2023-05-10T10:58:48;17.67;;;13.50;;
30020;SDS011;16861;52.294;7.760;2023-05-10T11:01:20;18.58;;;13.70;;
30020;SDS011;16861;52.294;7.760;2023-05-10T11:06:29;19.63;;;13.27;;
30020;SDS011;16861;52.294;7.760;2023-05-10T11:09:10;23.25;;;14.50;;
30020;SDS011;16861;52.294;7.760;2023-05-10T11:11:49;22.95;;;14.93;;
30020;SDS011;16861;52.294;7.760;2023-05-10T11:14:19;22.52;;;15.27;;
30020;SDS011;16861;52.294;7.760;2023-05-10T11:16:50;22.65;;;14.60;;
30020;SDS011;16861;52.294;7.760;2023-05-10T11:19:17;22.00;;;14.82;;
30020;SDS011;16861;52.294;7.760;2023-05-10T11:21:48;19.70;;;13.57;;
30020;SDS011;16861;52.294;7.760;2023-05-10T11:24:18;17.77;;;12.35;;
30020;SDS011;16861;52.294;7.760;2023-05-10T11:26:49;19.08;;;11.70;;
30020;SDS011;16861;52.294;7.760;2023-05-10T11:29:16;22.38;;;13.07;;
30020;SDS011;16861;52.294;7.760;2023-05-10T11:31:43;18.48;;;12.68;;
30020;SDS011;16861;52.294;7.760;2023-05-10T11:34:11;20.75;;;13.82;;
30020;SDS011;16861;52.294;7.760;2023-05-10T11:36:52;19.25;;;13.20;;
30020;SDS011;16861;52.294;7.760;2023-05-10T11:39:20;20.50;;;13.88;;
30020;SDS011;16861;52.294;7.760;2023-05-10T11:41:51;19.95;;;13.50;;
30020;SDS011;16861;52.294;7.760;2023-05-10T11:44:18;23.35;;;14.15;;
30020;SDS011;16861;52.294;7.760;2023-05-10T11:46:44;17.70;;;12.00;;
30020;SDS011;16861;52.294;7.760;2023-05-10T11:49:11;15.98;;;10.98;;
30020;SDS011;16861;52.294;7.760;2023-05-10T11:51:39;15.40;;;10.07;;
30020;SDS011;16861;52.294;7.760;2023-05-10T11:54:09;16.30;;;10.98;;
30020;SDS011;16861;52.294;7.760;2023-05-10T11:56:37;18.00;;;11.65;;
30020;SDS011;16861;52.294;7.760;2023-05-10T11:59:04;17.73;;;11.60;;
30020;SDS011;16861;52.294;7.760;2023-05-10T12:01:31;17.52;;;11.60;;
30020;SDS011;16861;52.294;7.760;2023-05-10T12:03:58;19.83;;;12.18;;
30020;SDS011;16861;52.294;7.760;2023-05-10T12:06:27;16.70;;;11.52;;
30020;SDS011;16861;52.294;7.760;2023-05-10T12:08:58;16.63;;;11.43;;
30020;SDS011;16861;52.294;7.760;2023-05-10T12:11:25;17.10;;;11.35;;
30020;SDS011;16861;52.294;7.760;2023-05-10T12:13:54;15.00;;;10.43;;
30020;SDS011;16861;52.294;7.760;2023-05-10T12:16:25;15.00;;;10.65;;
30020;SDS011;16861;52.294;7.760;2023-05-10T12:18:59;16.00;;;11.02;;
30020;SDS011;16861;52.294;7.760;2023-05-10T12:21:27;15.45;;;10.48;;
30020;SDS011;16861;52.294;7.760;2023-05-10T12:23:58;16.33;;;11.10;;
30020;SDS011;16861;52.294;7.760;2023-05-10T12:26:27;15.75;;;11.27;;
30020;SDS011;16861;52.294;7.760;2023-05-10T12:28:54;16.88;;;10.90;;
30020;SDS011;16861;52.294;7.760;2023-05-10T12:31:21;14.35;;;11.07;;
30020;SDS011;16861;52.294;7.760;2023-05-10T12:33:48;13.90;;;10.07;;
30020;SDS011;16861;52.294;7.760;2023-05-10T12:36:15;15.27;;;9.98;;
30020;SDS011;16861;52.294;7.760;2023-05-10T12:38:43;15.55;;;10.70;;
30020;SDS011;16861;52.294;7.760;2023-05-10T12:41:15;15.48;;;10.50;;
30020;SDS011;16861;52.294;7.760;2023-05-10T12:43:43;15.23;;;9.65;;
30020;SDS011;16861;52.294;7.760;2023-05-10T12:46:15;15.63;;;10.43;;
30020;SDS011;16861;52.294;7.760;2023-05-10T12:48:43;13.40;;;8.95;;
30020;SDS011;16861;52.294;7.760;2023-05-10T12:51:12;11.93;;;8.55;;
30020;SDS011;16861;52.294;7.760;2023-05-10T12:53:41;13.10;;;9.43;;
30020;SDS011;16861;52.294;7.760;2023-05-10T12:56:11;12.95;;;8.55;;
30020;SDS011;16861;52.294;7.760;2023-05-10T12:58:38;11.48;;;8.70;;
30020;SDS011;16861;52.294;7.760;2023-05-10T13:01:04;12.90;;;9.20;;
30020;SDS011;16861;52.294;7.760;2023-05-10T13:03:31;11.95;;;8.80;;
30020;SDS011;16861;52.294;7.760;2023-05-10T13:05:58;12.93;;;8.23;;
30020;SDS011;16861;52.294;7.760;2023-05-10T13:08:25;11.77;;;9.25;;
30020;SDS011;16861;52.294;7.760;2023-05-10T13:10:51;12.18;;;8.57;;
30020;SDS011;16861;52.294;7.760;2023-05-10T13:13:18;11.30;;;7.65;;
30020;SDS011;16861;52.294;7.760;2023-05-10T13:15:44;9.98;;;8.23;;
30020;SDS011;16861;52.294;7.760;2023-05-10T13:18:11;11.95;;;7.85;;
30020;SDS011;16861;52.294;7.760;2023-05-10T13:20:38;10.20;;;8.20;;
30020;SDS011;16861;52.294;7.760;2023-05-10T13:23:04;10.65;;;8.20;;
30020;SDS011;16861;52.294;7.760;2023-05-10T13:25:31;10.95;;;7.88;;
30020;SDS011;16861;52.294;7.760;2023-05-10T13:27:57;12.13;;;8.38;;
30020;SDS011;16861;52.294;7.760;2023-05-10T13:30:24;12.93;;;9.18;;
30020;SDS011;16861;52.294;7.760;2023-05-10T13:32:51;11.38;;;8.63;;
30020;SDS011;16861;52.294;7.760;2023-05-10T13:35:17;10.68;;;8.35;;
30020;SDS011;16861;52.294;7.760;2023-05-10T13:37:44;11.15;;;7.75;;
30020;SDS011;16861;52.294;7.760;2023-05-10T13:40:10;10.50;;;8.40;;
30020;SDS011;16861;52.294;7.760;2023-05-10T13:42:37;11.60;;;8.48;;
30020;SDS011;16861;52.294;7.760;2023-05-10T13:45:04;9.07;;;7.25;;
30020;SDS011;16861;52.294;7.760;2023-05-10T13:47:31;10.05;;;7.93;;
30020;SDS011;16861;52.294;7.760;2023-05-10T13:49:58;14.60;;;7.85;;
30020;SDS011;16861;52.294;7.760;2023-05-10T13:52:26;10.52;;;7.97;;
30020;SDS011;16861;52.294;7.760;2023-05-10T13:54:52;9.13;;;6.90;;
30020;SDS011;16861;52.294;7.760;2023-05-10T13:57:21;10.13;;;7.72;;
30020;SDS011;16861;52.294;7.760;2023-05-10T13:59:50;9.93;;;6.88;;
30020;SDS011;16861;52.294;7.760;2023-05-10T14:02:16;11.45;;;7.47;;
30020;SDS011;16861;52.294;7.760;2023-05-10T14:04:43;12.18;;;7.35;;
30020;SDS011;16861;52.294;7.760;2023-05-10T14:07:09;9.98;;;7.10;;
30020;SDS011;16861;52.294;7.760;2023-05-10T14:09:36;11.25;;;7.40;;
30020;SDS011;16861;52.294;7.760;2023-05-10T14:12:02;8.55;;;7.25;;
30020;SDS011;16861;52.294;7.760;2023-05-10T14:14:29;9.73;;;7.15;;
30020;SDS011;16861;52.294;7.760;2023-05-10T14:16:56;9.77;;;7.15;;
30020;SDS011;16861;52.294;7.760;2023-05-10T14:19:22;9.82;;;6.72;;
30020;SDS011;16861;52.294;7.760;2023-05-10T14:21:49;8.10;;;6.72;;
30020;SDS011;16861;52.294;7.760;2023-05-10T14:24:15;8.18;;;6.43;;
30020;SDS011;16861;52.294;7.760;2023-05-10T14:26:42;9.65;;;6.50;;
30020;SDS011;16861;52.294;7.760;2023-05-10T14:29:08;7.70;;;5.95;;
30020;SDS011;16861;52.294;7.760;2023-05-10T14:31:37;8.82;;;6.40;;
30020;SDS011;16861;52.294;7.760;2023-05-10T14:34:04;9.68;;;7.10;;
30020;SDS011;16861;52.294;7.760;2023-05-10T14:36:31;8.48;;;6.40;;
30020;SDS011;16861;52.294;7.760;2023-05-10T14:38:58;8.43;;;6.30;;
30020;SDS011;16861;52.294;7.760;2023-05-10T14:41:25;8.90;;;6.63;;
30020;SDS011;16861;52.294;7.760;2023-05-10T14:43:52;8.77;;;6.50;;
30020;SDS011;16861;52.294;7.760;2023-05-10T14:46:18;13.27;;;6.95;;
30020;SDS011;16861;52.294;7.760;2023-05-10T14:48:45;7.53;;;6.03;;
30020;SDS011;16861;52.294;7.760;2023-05-10T14:51:11;7.72;;;6.05;;
30020;SDS011;16861;52.294;7.760;2023-05-10T14:53:38;9.95;;;5.97;;
30020;SDS011;16861;52.294;7.760;2023-05-10T14:56:04;7.38;;;5.47;;
30020;SDS011;16861;52.294;7.760;2023-05-10T14:58:31;6.15;;;5.30;;
30020;SDS011;16861;52.294;7.760;2023-05-10T15:00:59;7.45;;;6.15;;
30020;SDS011;16861;52.294;7.760;2023-05-10T15:03:26;7.35;;;5.85;;
30020;SDS011;16861;52.294;7.760;2023-05-10T15:05:53;8.40;;;5.97;;
30020;SDS011;16861;52.294;7.760;2023-05-10T15:08:22;6.45;;;5.00;;
30020;SDS011;16861;52.294;7.760;2023-05-10T15:10:50;6.40;;;4.93;;